Time;durP1;ratioP1;P1;durP2;ratioP2;P2;SDS_P1;SDS_P2;PMS_P1;PMS_P2;Temp;Humidity;BMP_temperature;BMP_pressure;BME280_temperature;BME280_humidity;BME280_pressure;Samples;Min_cycle;Max_cycle;Signal;HPM_P1;HPM_P2
2022/11/20 00:01:31;;;;;;;0.10;0.10;;;;;;;;;;6146512;23;20027;-77
2022/11/20 00:03:58;;;;;;;0.10;0.10;;;;;;;;;;6197364;23;20131;-76
2022/11/20 00:06:24;;;;;;;0.10;0.10;;;;;;;;;;6170006;23;20031;-76
2022/11/20 00:08:54;;;;;;;0.20;0.20;;;;;;;;;;6140575;23;20252;-76
2022/11/20 00:11:22;;;;;;;0.10;0.10;;;;;;;;;;6141772;23;20029;-76
2022/11/20 00:13:49;;;;;;;0.10;0.10;;;;;;;;;;6168271;23;20021;-76
2022/11/20 00:16:17;;;;;;;0.10;0.10;;;;;;;;;;6143393;23;20456;-77
2022/11/20 00:18:43;;;;;;;0.15;0.15;;;;;;;;;;6119506;23;20081;-77
2022/11/20 00:21:14;;;;;;;0.10;0.10;;;;;;;;;;6143557;23;20029;-76
2022/11/20 00:23:41;;;;;;;0.20;0.20;;;;;;;;;;6142734;23;20518;-76
2022/11/20 00:26:08;;;;;;;0.10;0.10;;;;;;;;;;6143187;23;20029;-76
2022/11/20 00:28:34;;;;;;;0.10;0.10;;;;;;;;;;6142786;23;20121;-76
2022/11/20 00:31:11;;;;;;;0.20;0.20;;;;;;;;;;6142901;23;20322;-76
2022/11/20 00:33:37;;;;;;;0.20;0.20;;;;;;;;;;6143158;23;20032;-77
2022/11/20 00:36:05;;;;;;;0.50;0.50;;;;;;;;;;6143375;23;20025;-77
2022/11/20 00:38:34;;;;;;;0.85;0.85;;;;;;;;;;6142215;23;20417;-76
2022/11/20 00:41:02;;;;;;;0.10;0.10;;;;;;;;;;6143610;23;20027;-76
2022/11/20 00:43:28;;;;;;;0.10;0.10;;;;;;;;;;6118954;23;20123;-77
2022/11/20 00:46:01;;;;;;;0.20;0.20;;;;;;;;;;6143174;23;20035;-77
2022/11/20 00:48:27;;;;;;;0.13;0.13;;;;;;;;;;6143032;23;20028;-76
2022/11/20 00:50:53;;;;;;;0.15;0.15;;;;;;;;;;6117221;23;20486;-76
2022/11/20 00:53:20;;;;;;;0.20;0.20;;;;;;;;;;6142394;23;20254;-76
2022/11/20 00:55:53;;;;;;;0.15;0.15;;;;;;;;;;6142166;23;20025;-76
2022/11/20 00:58:19;;;;;;;0.10;0.10;;;;;;;;;;6137459;23;20342;-77
2022/11/20 01:00:45;;;;;;;0.35;0.35;;;;;;;;;;6137135;23;20021;-78
2022/11/20 01:03:11;;;;;;;0.65;0.65;;;;;;;;;;6137470;23;20032;-77
2022/11/20 01:05:37;;;;;;;6.22;3.70;;;;;;;;;;6136936;23;20369;-77
2022/11/20 01:08:04;;;;;;;0.10;0.10;;;;;;;;;;6138495;23;20021;-76
2022/11/20 01:10:30;;;;;;;0.10;0.10;;;;;;;;;;6137243;23;20025;-76
2022/11/20 01:15:41;;;;;;;0.10;0.10;;;;;;;;;;6136861;23;20022;-76
2022/11/20 01:18:07;;;;;;;0.10;0.10;;;;;;;;;;6137196;23;20096;-76
2022/11/20 01:20:36;;;;;;;0.10;0.10;;;;;;;;;;6136596;23;20376;-76
2022/11/20 01:23:03;;;;;;;0.10;0.10;;;;;;;;;;6137012;23;20226;-76
2022/11/20 01:25:29;;;;;;;0.10;0.10;;;;;;;;;;6138646;23;20031;-76
2022/11/20 01:27:55;;;;;;;0.10;0.10;;;;;;;;;;6133302;23;20049;-75
2022/11/20 01:30:21;;;;;;;0.10;0.10;;;;;;;;;;6135756;23;20492;-75
2022/11/20 01:32:47;;;;;;;0.10;0.10;;;;;;;;;;6137149;23;20033;-75
2022/11/20 01:35:13;;;;;;;0.10;0.10;;;;;;;;;;6134780;23;20473;-75
2022/11/20 01:37:39;;;;;;;0.20;0.20;;;;;;;;;;6135899;23;20112;-75
2022/11/20 01:40:06;;;;;;;0.30;0.30;;;;;;;;;;6112224;23;20101;-75
2022/11/20 01:45:35;;;;;;;0.65;0.65;;;;;;;;;;6136239;23;20060;-75
2022/11/20 01:48:01;;;;;;;6.05;1.45;;;;;;;;;;6137737;23;20425;-75
2022/11/20 01:50:29;;;;;;;0.73;0.73;;;;;;;;;;6136349;23;20025;-75
2022/11/20 01:52:58;;;;;;;0.10;0.10;;;;;;;;;;6112912;23;20450;-75
2022/11/20 01:55:30;;;;;;;0.10;0.10;;;;;;;;;;6136929;23;20797;-75
2022/11/20 01:57:56;;;;;;;0.10;0.10;;;;;;;;;;6137636;23;20065;-76
2022/11/20 02:00:22;;;;;;;0.10;0.10;;;;;;;;;;6136610;23;20034;-76
2022/11/20 02:02:51;;;;;;;0.30;0.30;;;;;;;;;;6136681;23;20058;-75
2022/11/20 02:05:21;;;;;;;0.10;0.10;;;;;;;;;;6111883;23;20025;-75
2022/11/20 02:07:47;;;;;;;0.10;0.10;;;;;;;;;;6139060;23;20353;-75
2022/11/20 02:10:13;;;;;;;0.10;0.10;;;;;;;;;;6137021;23;20132;-75
2022/11/20 02:15:24;;;;;;;0.57;0.57;;;;;;;;;;6136565;23;20028;-75
2022/11/20 02:17:50;;;;;;;0.10;0.10;;;;;;;;;;6138463;23;20022;-75
2022/11/20 02:20:16;;;;;;;0.10;0.10;;;;;;;;;;6136533;23;20029;-75
2022/11/20 02:22:46;;;;;;;0.43;0.43;;;;;;;;;;6112673;23;20029;-75
2022/11/20 02:25:12;;;;;;;0.10;0.10;;;;;;;;;;6136660;23;20612;-78
2022/11/20 02:27:38;;;;;;;0.10;0.10;;;;;;;;;;6136823;23;20029;-76
2022/11/20 02:30:07;;;;;;;0.10;0.10;;;;;;;;;;6111532;23;20052;-76
2022/11/20 02:32:37;;;;;;;0.38;0.38;;;;;;;;;;6136235;23;20453;-76
2022/11/20 02:35:10;;;;;;;0.13;0.13;;;;;;;;;;6135869;23;20147;-77
2022/11/20 02:37:38;;;;;;;0.20;0.20;;;;;;;;;;6135045;23;20058;-76
2022/11/20 02:40:04;;;;;;;0.10;0.10;;;;;;;;;;6136888;23;20087;-76
2022/11/20 02:42:30;;;;;;;0.10;0.10;;;;;;;;;;6137511;23;20040;-77
2022/11/20 02:44:56;;;;;;;0.10;0.10;;;;;;;;;;6137031;23;20029;-77
2022/11/20 02:47:22;;;;;;;0.13;0.13;;;;;;;;;;6136572;23;20032;-77
2022/11/20 02:49:48;;;;;;;0.10;0.10;;;;;;;;;;6137161;23;20022;-76
2022/11/20 02:52:14;;;;;;;3.10;1.42;;;;;;;;;;6136266;23;20025;-76
2022/11/20 02:54:40;;;;;;;0.10;0.10;;;;;;;;;;6136446;23;20497;-78
2022/11/20 02:57:07;;;;;;;0.10;0.10;;;;;;;;;;6139645;23;20620;-76
2022/11/20 02:59:33;;;;;;;0.20;0.20;;;;;;;;;;6141458;23;20029;-76
2022/11/20 03:01:59;;;;;;;0.20;0.20;;;;;;;;;;6139757;23;20025;-76
2022/11/20 03:04:25;;;;;;;0.10;0.10;;;;;;;;;;6141684;23;20079;-76
2022/11/20 03:06:51;;;;;;;0.13;0.13;;;;;;;;;;6140527;23;20025;-76
2022/11/20 03:09:17;;;;;;;0.30;0.30;;;;;;;;;;6165790;23;20040;-76
2022/11/20 03:11:43;;;;;;;0.20;0.20;;;;;;;;;;6116077;23;20404;-76
2022/11/20 03:14:09;;;;;;;0.10;0.10;;;;;;;;;;6141171;23;20032;-78
2022/11/20 03:16:35;;;;;;;0.40;0.40;;;;;;;;;;6140905;23;20052;-76
2022/11/20 03:19:01;;;;;;;0.10;0.10;;;;;;;;;;6167664;23;20127;-76
2022/11/20 03:21:27;;;;;;;0.10;0.10;;;;;;;;;;6141989;23;20099;-77
2022/11/20 03:23:54;;;;;;;0.10;0.10;;;;;;;;;;6141163;23;20108;-76
2022/11/20 03:26:24;;;;;;;0.10;0.10;;;;;;;;;;6141010;23;20076;-77
2022/11/20 03:28:54;;;;;;;0.10;0.10;;;;;;;;;;6115895;23;20028;-77
2022/11/20 03:31:22;;;;;;;0.10;0.10;;;;;;;;;;6141156;23;20033;-77
2022/11/20 03:33:48;;;;;;;0.10;0.10;;;;;;;;;;6140458;23;20528;-77
2022/11/20 03:36:15;;;;;;;0.10;0.10;;;;;;;;;;6141442;23;20116;-77
2022/11/20 03:38:41;;;;;;;0.10;0.10;;;;;;;;;;6140802;23;20485;-77
2022/11/20 03:41:09;;;;;;;0.10;0.10;;;;;;;;;;6140781;23;20349;-77
2022/11/20 03:43:35;;;;;;;0.10;0.10;;;;;;;;;;6141123;23;20268;-76
2022/11/20 03:46:01;;;;;;;0.10;0.10;;;;;;;;;;6139563;23;20029;-77
2022/11/20 03:48:28;;;;;;;0.20;0.20;;;;;;;;;;6141706;23;20036;-77
2022/11/20 03:51:06;;;;;;;0.10;0.10;;;;;;;;;;6141706;23;20408;-77
2022/11/20 03:53:32;;;;;;;0.63;0.63;;;;;;;;;;6140330;23;20516;-77
2022/11/20 03:55:58;;;;;;;0.15;0.15;;;;;;;;;;6141876;23;20017;-77
2022/11/20 03:58:24;;;;;;;0.30;0.30;;;;;;;;;;6136053;23;20026;-77
2022/11/20 04:00:50;;;;;;;0.10;0.10;;;;;;;;;;6135981;23;20157;-77
2022/11/20 04:03:16;;;;;;;0.25;0.25;;;;;;;;;;6137355;23;20033;-77
2022/11/20 04:05:42;;;;;;;0.75;0.75;;;;;;;;;;6111368;23;20025;-77
2022/11/20 04:08:08;;;;;;;0.10;0.10;;;;;;;;;;6136360;23;20029;-77
2022/11/20 04:10:34;;;;;;;0.10;0.10;;;;;;;;;;6136274;23;20025;-77
2022/11/20 04:13:00;;;;;;;0.10;0.10;;;;;;;;;;6136598;23;20369;-76
2022/11/20 04:15:26;;;;;;;0.50;0.50;;;;;;;;;;6136675;23;20053;-77
2022/11/20 04:17:52;;;;;;;0.30;0.30;;;;;;;;;;6136580;23;20096;-77
2022/11/20 04:20:19;;;;;;;0.22;0.22;;;;;;;;;;6137026;23;20033;-77
2022/11/20 04:22:45;;;;;;;0.10;0.10;;;;;;;;;;6136507;23;20033;-77
2022/11/20 04:25:11;;;;;;;0.10;0.10;;;;;;;;;;6136580;23;20025;-77
2022/11/20 04:27:37;;;;;;;0.10;0.10;;;;;;;;;;6136067;23;20033;-76
2022/11/20 04:30:03;;;;;;;0.10;0.10;;;;;;;;;;6136089;23;20025;-77
2022/11/20 04:32:29;;;;;;;0.10;0.10;;;;;;;;;;6135499;23;20029;-77
2022/11/20 04:34:55;;;;;;;0.10;0.10;;;;;;;;;;6136706;23;20465;-77
2022/11/20 04:37:21;;;;;;;0.95;0.95;;;;;;;;;;6134441;23;20056;-76
2022/11/20 04:39:47;;;;;;;0.20;0.20;;;;;;;;;;6136213;23;20025;-75
2022/11/20 04:42:28;;;;;;;0.10;0.10;;;;;;;;;;6136241;23;20096;-76
2022/11/20 04:44:54;;;;;;;0.52;0.52;;;;;;;;;;6136098;23;20373;-76
2022/11/20 04:47:20;;;;;;;1.08;0.73;;;;;;;;;;6136019;23;20033;-76
2022/11/20 04:49:47;;;;;;;0.10;0.10;;;;;;;;;;6138713;23;20913;-76
2022/11/20 04:52:13;;;;;;;0.10;0.10;;;;;;;;;;6135960;23;20461;-76
2022/11/20 04:54:39;;;;;;;1.75;0.93;;;;;;;;;;6134332;23;20861;-75
2022/11/20 04:57:05;;;;;;;0.10;0.10;;;;;;;;;;6136312;23;20029;-76
2022/11/20 04:59:31;;;;;;;0.10;0.10;;;;;;;;;;6110080;23;20057;-78
2022/11/20 05:01:57;;;;;;;0.10;0.10;;;;;;;;;;6137626;23;20029;-76
2022/11/20 05:04:23;;;;;;;0.10;0.10;;;;;;;;;;6137921;23;20017;-76
2022/11/20 05:06:50;;;;;;;0.10;0.10;;;;;;;;;;6137112;23;20025;-78
2022/11/20 05:09:16;;;;;;;0.10;0.10;;;;;;;;;;6112493;23;20025;-76
2022/11/20 05:11:42;;;;;;;0.10;0.10;;;;;;;;;;6137573;23;20031;-77
2022/11/20 05:14:08;;;;;;;0.10;0.10;;;;;;;;;;6112995;23;20029;-77
2022/11/20 05:16:35;;;;;;;0.10;0.10;;;;;;;;;;6138144;23;20108;-77
2022/11/20 05:19:02;;;;;;;0.10;0.10;;;;;;;;;;6136856;23;20053;-77
2022/11/20 05:21:28;;;;;;;0.10;0.10;;;;;;;;;;6138656;23;20199;-77
2022/11/20 05:23:54;;;;;;;0.40;0.40;;;;;;;;;;6138077;23;20396;-77
2022/11/20 05:26:23;;;;;;;0.10;0.10;;;;;;;;;;6139974;23;20537;-76
2022/11/20 05:28:49;;;;;;;0.10;0.10;;;;;;;;;;6137532;23;20075;-76
2022/11/20 05:31:20;;;;;;;0.10;0.10;;;;;;;;;;6136834;23;20036;-76
2022/11/20 05:33:46;;;;;;;;;;;;;;;;;;6136223;23;20088;-76
2022/11/20 05:36:12;;;;;;;;;;;;;;;;;;6163085;23;19921;-76
2022/11/20 05:38:38;;;;;;;;;;;;;;;;;;6162482;23;19983;-76
2022/11/20 05:41:04;;;;;;;;;;;;;;;;;;6161575;23;20440;-76
2022/11/20 05:43:30;;;;;;;;;;;;;;;;;;6138150;23;19916;-76
2022/11/20 05:45:56;;;;;;;;;;;;;;;;;;6161097;23;19923;-76
2022/11/20 05:48:22;;;;;;;;;;;;;;;;;;6162124;23;19918;-76
2022/11/20 05:50:48;;;;;;;;;;;;;;;;;;6162596;23;19928;-77
2022/11/20 05:53:13;;;;;;;;;;;;;;;;;;6163624;23;19927;-77
2022/11/20 05:55:39;;;;;;;;;;;;;;;;;;6163401;23;19916;-76
2022/11/20 05:58:05;;;;;;;;;;;;;;;;;;6162287;23;19920;-76
2022/11/20 06:00:31;;;;;;;;;;;;;;;;;;6162825;23;19943;-76
2022/11/20 06:02:57;;;;;;;;;;;;;;;;;;6161194;23;20022;-76
2022/11/20 06:05:23;;;;;;;;;;;;;;;;;;6162308;23;20246;-76
2022/11/20 06:07:49;;;;;;;;;;;;;;;;;;6162804;23;20349;-76
2022/11/20 06:10:15;;;;;;;;;;;;;;;;;;6139548;23;19921;-76
2022/11/20 06:12:41;;;;;;;;;;;;;;;;;;6160813;23;19939;-76
2022/11/20 06:15:07;;;;;;;;;;;;;;;;;;6161509;23;20472;-76
2022/11/20 06:17:33;;;;;;;;;;;;;;;;;;6163323;23;19979;-76
2022/11/20 06:19:59;;;;;;;;;;;;;;;;;;6162408;23;20175;-76
2022/11/20 06:22:25;;;;;;;;;;;;;;;;;;6162932;23;19923;-76
2022/11/20 06:24:50;;;;;;;;;;;;;;;;;;6162621;23;20267;-76
2022/11/20 06:27:16;;;;;;;;;;;;;;;;;;6162941;23;19917;-76
2022/11/20 06:29:42;;;;;;;;;;;;;;;;;;6160860;23;19923;-75
2022/11/20 06:32:08;;;;;;;;;;;;;;;;;;6161132;23;20047;-76
2022/11/20 06:34:34;;;;;;;;;;;;;;;;;;6161489;23;19927;-76
2022/11/20 06:37:00;;;;;;;;;;;;;;;;;;6162436;23;19916;-76
2022/11/20 06:39:26;;;;;;;;;;;;;;;;;;6162463;23;19939;-76
2022/11/20 06:41:52;;;;;;;;;;;;;;;;;;6161009;23;19920;-76
2022/11/20 06:44:18;;;;;;;;;;;;;;;;;;6139047;23;19959;-77
2022/11/20 06:46:44;;;;;;;;;;;;;;;;;;6162392;23;19939;-76
2022/11/20 06:49:10;;;;;;;;;;;;;;;;;;6139318;23;20293;-76
2022/11/20 06:51:36;;;;;;;;;;;;;;;;;;6137145;23;20061;-77
2022/11/20 06:54:02;;;;;;;;;;;;;;;;;;6162013;23;19920;-76
2022/11/20 06:56:28;;;;;;;;;;;;;;;;;;6136612;23;19920;-76
2022/11/20 06:58:54;;;;;;;;;;;;;;;;;;6161481;23;19951;-76
2022/11/20 07:01:20;;;;;;;;;;;;;;;;;;6160632;23;19925;-77
2022/11/20 07:03:46;;;;;;;;;;;;;;;;;;6162267;23;19916;-78
2022/11/20 07:06:12;;;;;;;;;;;;;;;;;;6136258;23;19916;-77
2022/11/20 07:08:38;;;;;;;;;;;;;;;;;;6161922;23;19916;-77
2022/11/20 07:11:04;;;;;;;;;;;;;;;;;;6161382;23;19916;-76
2022/11/20 07:13:30;;;;;;;;;;;;;;;;;;6161023;23;19927;-77
2022/11/20 07:15:56;;;;;;;;;;;;;;;;;;6137345;23;19916;-76
2022/11/20 07:18:22;;;;;;;;;;;;;;;;;;6161865;23;20251;-77
2022/11/20 07:20:48;;;;;;;;;;;;;;;;;;6162231;23;20368;-77
2022/11/20 07:23:14;;;;;;;;;;;;;;;;;;6138459;23;20264;-77
2022/11/20 07:25:40;;;;;;;;;;;;;;;;;;6161781;23;19916;-77
2022/11/20 07:28:06;;;;;;;;;;;;;;;;;;6161182;23;20299;-77
2022/11/20 07:30:32;;;;;;;;;;;;;;;;;;6160763;23;20285;-77
2022/11/20 07:32:58;;;;;;;;;;;;;;;;;;6161670;23;20333;-77
2022/11/20 07:35:24;;;;;;;;;;;;;;;;;;6161592;23;20451;-77
2022/11/20 07:37:50;;;;;;;;;;;;;;;;;;6160907;23;19916;-77
2022/11/20 07:40:16;;;;;;;;;;;;;;;;;;6112524;23;20417;-77
2022/11/20 07:42:42;;;;;;;;;;;;;;;;;;6161123;23;19923;-77
2022/11/20 07:45:08;;;;;;;;;;;;;;;;;;6160375;23;19927;-77
2022/11/20 07:47:34;;;;;;;;;;;;;;;;;;6161977;23;20290;-77
2022/11/20 07:49:59;;;;;;;;;;;;;;;;;;6111398;23;20446;-77
2022/11/20 07:52:25;;;;;;;;;;;;;;;;;;6138188;23;19923;-77
2022/11/20 07:54:51;;;;;;;;;;;;;;;;;;6160778;23;19921;-77
2022/11/20 07:57:17;;;;;;;;;;;;;;;;;;6163941;23;20257;-77
2022/11/20 07:59:45;;;;;;;;;;;;;;;;;;6140698;23;19916;-77
2022/11/20 08:02:11;;;;;;;;;;;;;;;;;;6166519;23;19916;-77
2022/11/20 08:04:37;;;;;;;;;;;;;;;;;;6141037;23;19931;-76
2022/11/20 08:07:02;;;;;;;;;;;;;;;;;;6141141;23;19923;-76
2022/11/20 08:09:29;;;;;;;;;;;;;;;;;;6141325;23;19969;-76
2022/11/20 08:14:50;;;;;;;;;;;;;;;;;;6086991;23;19972;-76
2022/11/20 08:17:16;;;;;;;;;;;;;;;;;;6141006;23;19924;-76
2022/11/20 08:19:42;;;;;;;;;;;;;;;;;;6142065;23;19916;-76
2022/11/20 08:22:08;;;;;;;;;;;;;;;;;;6140574;23;19916;-77
2022/11/20 08:24:34;;;;;;;;;;;;;;;;;;6167649;23;19994;-77
2022/11/20 08:27:00;;;;;;;;;;;;;;;;;;6166236;23;20341;-77
2022/11/20 08:29:26;;;;;;;;;;;;;;;;;;6141207;23;19994;-78
2022/11/20 08:31:52;;;;;;;;;;;;;;;;;;6142031;23;19916;-78
2022/11/20 08:34:18;;;;;;;;;;;;;;;;;;6141477;23;19920;-77
2022/11/20 08:36:44;;;;;;;;;;;;;;;;;;6143312;23;19927;-78
2022/11/20 08:39:10;;;;;;;;;;;;;;;;;;6142909;23;20369;-78
2022/11/20 08:41:36;;;;;;;;;;;;;;;;;;6143342;23;19923;-79
2022/11/20 08:44:02;;;;;;;;;;;;;;;;;;6118926;23;19955;-79
2022/11/20 08:46:28;;;;;;;;;;;;;;;;;;6143478;23;20147;-79
2022/11/20 08:48:54;;;;;;;;;;;;;;;;;;6143664;23;19927;-79
2022/11/20 08:51:20;;;;;;;;;;;;;;;;;;6119359;23;19995;-78
2022/11/20 08:53:48;;;;;;;;;;;;;;;;;;6144141;23;19920;-78
2022/11/20 08:56:14;;;;;;;;;;;;;;;;;;6169320;23;19961;-79
2022/11/20 08:58:40;;;;;;;;;;;;;;;;;;6115447;23;19924;-78
2022/11/20 09:01:06;;;;;;;;;;;;;;;;;;6164032;23;20194;-75
2022/11/20 09:03:32;;;;;;;;;;;;;;;;;;6163530;23;19920;-76
2022/11/20 09:05:59;;;;;;;;;;;;;;;;;;6138443;23;19971;-77
2022/11/20 09:08:25;;;;;;;;;;;;;;;;;;6138242;23;19920;-77
2022/11/20 09:10:51;;;;;;;;;;;;;;;;;;6162368;23;20229;-76
2022/11/20 09:13:17;;;;;;;;;;;;;;;;;;6162242;23;19925;-75
2022/11/20 09:15:42;;;;;;;;;;;;;;;;;;6140038;23;19924;-76
2022/11/20 09:18:08;;;;;;;;;;;;;;;;;;6161383;23;19944;-76
2022/11/20 09:20:35;;;;;;;;;;;;;;;;;;6139829;23;19920;-76
2022/11/20 09:23:01;;;;;;;;;;;;;;;;;;6138175;23;20368;-76
2022/11/20 09:25:27;;;;;;;;;;;;;;;;;;6139258;23;20352;-76
2022/11/20 09:27:53;;;;;;;;;;;;;;;;;;6160003;23;19916;-77
2022/11/20 09:30:19;;;;;;;;;;;;;;;;;;6111818;23;19954;-77
2022/11/20 09:32:45;;;;;;;;;;;;;;;;;;6136971;23;19923;-78
2022/11/20 09:35:11;;;;;;;;;;;;;;;;;;6109631;23;19963;-75
2022/11/20 09:37:37;;;;;;;;;;;;;;;;;;6138311;23;19916;-74
2022/11/20 09:40:03;;;;;;;;;;;;;;;;;;6161826;23;19923;-77
2022/11/20 09:42:29;;;;;;;;;;;;;;;;;;6160756;23;20343;-77
2022/11/20 09:44:55;;;;;;;;;;;;;;;;;;6162245;23;19951;-74
2022/11/20 09:47:21;;;;;;;;;;;;;;;;;;6161946;23;20356;-73
2022/11/20 09:49:47;;;;;;;;;;;;;;;;;;6159789;23;19927;-73
2022/11/20 09:52:13;;;;;;;;;;;;;;;;;;6137510;23;20380;-74
2022/11/20 09:54:39;;;;;;;;;;;;;;;;;;6138381;23;20212;-75
2022/11/20 09:57:05;;;;;;;;;;;;;;;;;;6161841;23;19916;-76
2022/11/20 09:59:31;;;;;;;;;;;;;;;;;;6110823;23;19975;-74
2022/11/20 10:01:56;;;;;;;;;;;;;;;;;;6138326;23;19916;-74
2022/11/20 10:04:22;;;;;;;;;;;;;;;;;;6136006;23;19916;-74
2022/11/20 10:06:48;;;;;;;;;;;;;;;;;;6160196;23;20235;-74
2022/11/20 10:09:14;;;;;;;;;;;;;;;;;;6138400;23;19924;-73
2022/11/20 10:11:40;;;;;;;;;;;;;;;;;;6138076;23;19924;-74
2022/11/20 10:14:06;;;;;;;;;;;;;;;;;;6162076;23;20341;-74
2022/11/20 10:16:32;;;;;;;;;;;;;;;;;;6161061;23;20954;-74
2022/11/20 10:18:58;;;;;;;;;;;;;;;;;;6161130;23;20321;-75
2022/11/20 10:21:24;;;;;;;;;;;;;;;;;;6160587;23;19927;-75
2022/11/20 10:23:50;;;;;;;;;;;;;;;;;;6112539;23;19939;-74
2022/11/20 10:26:16;;;;;;;;;;;;;;;;;;6158079;23;19924;-79
2022/11/20 10:28:42;;;;;;;;;;;;;;;;;;6113055;23;19916;-76
2022/11/20 10:31:08;;;;;;;;;;;;;;;;;;6159476;23;19920;-74
2022/11/20 10:33:34;;;;;;;;;;;;;;;;;;6160608;23;19975;-75
2022/11/20 10:36:00;;;;;;;;;;;;;;;;;;6159967;23;20028;-76
2022/11/20 10:38:26;;;;;;;;;;;;;;;;;;6160594;23;19942;-75
2022/11/20 10:40:52;;;;;;;;;;;;;;;;;;6160985;23;19962;-75
2022/11/20 10:43:18;;;;;;;;;;;;;;;;;;6159184;23;20055;-75
2022/11/20 10:45:44;;;;;;;;;;;;;;;;;;6161268;23;20387;-76
2022/11/20 10:48:09;;;;;;;;;;;;;;;;;;6111145;23;19917;-76
2022/11/20 10:50:35;;;;;;;;;;;;;;;;;;6112319;23;19971;-74
2022/11/20 10:53:01;;;;;;;;;;;;;;;;;;6112165;23;19921;-76
2022/11/20 10:55:28;;;;;;;;;;;;;;;;;;6138267;23;19924;-76
2022/11/20 10:57:54;;;;;;;;;;;;;;;;;;6136697;23;19921;-76
2022/11/20 11:00:20;;;;;;;;;;;;;;;;;;6135667;23;19920;-76
2022/11/20 11:02:46;;;;;;;;;;;;;;;;;;6136807;23;20013;-75
2022/11/20 11:05:12;;;;;;;;;;;;;;;;;;6135040;23;20138;-75
2022/11/20 11:07:38;;;;;;;;;;;;;;;;;;6136809;23;20233;-75
2022/11/20 11:10:04;;;;;;;;;;;;;;;;;;6136752;23;20053;-74
2022/11/20 11:12:30;;;;;;;;;;;;;;;;;;6135768;23;19971;-75
2022/11/20 11:14:56;;;;;;;;;;;;;;;;;;6136809;23;19920;-74
2022/11/20 11:17:22;;;;;;;;;;;;;;;;;;6134936;23;19916;-74
2022/11/20 11:19:48;;;;;;;;;;;;;;;;;;6137007;23;19916;-74
2022/11/20 11:22:14;;;;;;;;;;;;;;;;;;6136431;23;20348;-75
2022/11/20 11:24:40;;;;;;;;;;;;;;;;;;6110979;23;20355;-74
2022/11/20 11:27:06;;;;;;;;;;;;;;;;;;6136481;23;20003;-75
2022/11/20 11:29:32;;;;;;;;;;;;;;;;;;6136909;23;19952;-73
2022/11/20 11:31:58;;;;;;;;;;;;;;;;;;6136054;23;19916;-74
2022/11/20 11:34:24;;;;;;;;;;;;;;;;;;6134996;23;19920;-74
2022/11/20 11:36:50;;;;;;;;;;;;;;;;;;6135780;23;19995;-74
2022/11/20 11:39:16;;;;;;;;;;;;;;;;;;6111047;23;19916;-74
2022/11/20 11:41:42;;;;;;;;;;;;;;;;;;6136887;23;20019;-74
2022/11/20 11:46:52;;;;;;;;;;;;;;;;;;6110938;23;19916;-76
2022/11/20 11:49:18;;;;;;;;;;;;;;;;;;6136648;23;19917;-74
2022/11/20 11:51:44;;;;;;;;;;;;;;;;;;6137172;23;19979;-74
2022/11/20 11:54:10;;;;;;;;;;;;;;;;;;6137676;23;20324;-74
2022/11/20 11:56:36;;;;;;;;;;;;;;;;;;6113922;23;20037;-77
2022/11/20 11:59:02;;;;;;;;;;;;;;;;;;6136638;23;19923;-76
2022/11/20 12:01:28;;;;;;;;;;;;;;;;;;6163621;23;19923;-74
2022/11/20 12:03:54;;;;;;;;;;;;;;;;;;6164038;23;20391;-74
2022/11/20 12:06:20;;;;;;;;;;;;;;;;;;6166113;23;19955;-75
2022/11/20 12:08:46;;;;;;;;;;;;;;;;;;6166254;23;20302;-75
2022/11/20 12:11:12;;;;;;;;;;;;;;;;;;6168813;23;19920;-75
2022/11/20 12:13:38;;;;;;;;;;;;;;;;;;6167054;23;20310;-74
2022/11/20 12:16:04;;;;;;;;;;;;;;;;;;6168159;23;19927;-76
2022/11/20 12:18:30;;;;;;;;;;;;;;;;;;6167791;23;19942;-75
2022/11/20 12:20:56;;;;;;;;;;;;;;;;;;6167225;23;19916;-76
2022/11/20 12:23:22;;;;;;;;;;;;;;;;;;6166979;23;20382;-74
2022/11/20 12:25:47;;;;;;;;;;;;;;;;;;6167463;23;20328;-75
2022/11/20 12:28:13;;;;;;;;;;;;;;;;;;6142772;23;19931;-75
2022/11/20 12:30:39;;;;;;;;;;;;;;;;;;6168229;23;19916;-74
2022/11/20 12:33:05;;;;;;;;;;;;;;;;;;6143211;23;20404;-75
2022/11/20 12:35:31;;;;;;;;;;;;;;;;;;6141506;23;20375;-75
2022/11/20 12:37:57;;;;;;;;;;;;;;;;;;6142961;23;19987;-75
2022/11/20 12:40:23;;;;;;;;;;;;;;;;;;6165918;23;19922;-75
2022/11/20 12:45:33;;;;;;;;;;;;;;;;;;6143483;23;19923;-75
2022/11/20 12:47:59;;;;;;;;;;;;;;;;;;6167714;23;20624;-74
2022/11/20 12:50:25;;;;;;;;;;;;;;;;;;6166458;23;19958;-75
2022/11/20 12:52:51;;;;;;;;;;;;;;;;;;6168893;23;19966;-74
2022/11/20 12:55:17;;;;;;;;;;;;;;;;;;6167272;23;20032;-74
2022/11/20 12:57:43;;;;;;;;;;;;;;;;;;6167511;23;19924;-74
2022/11/20 13:00:10;;;;;;;;;;;;;;;;;;6164885;23;19930;-75
2022/11/20 13:02:36;;;;;;;;;;;;;;;;;;6142471;23;20007;-77
2022/11/20 13:05:02;;;;;;;;;;;;;;;;;;6167501;23;19999;-77
2022/11/20 13:07:28;;;;;;;;;;;;;;;;;;6168445;23;19951;-79
2022/11/20 13:09:54;;;;;;;;;;;;;;;;;;6168919;23;19923;-77
2022/11/20 13:12:20;;;;;;;;;;;;;;;;;;6167791;23;19988;-78
2022/11/20 13:14:46;;;;;;;;;;;;;;;;;;6142806;23;20297;-76
2022/11/20 13:17:12;;;;;;;;;;;;;;;;;;6166808;23;19943;-76
2022/11/20 13:19:38;;;;;;;;;;;;;;;;;;6168398;23;19916;-77
2022/11/20 13:22:04;;;;;;;;;;;;;;;;;;6143564;23;20013;-76
2022/11/20 13:24:30;;;;;;;;;;;;;;;;;;6167761;23;20244;-76
2022/11/20 13:26:56;;;;;;;;;;;;;;;;;;6168920;23;20346;-77
2022/11/20 13:29:22;;;;;;;;;;;;;;;;;;6167207;23;20252;-76
2022/11/20 13:31:48;;;;;;;;;;;;;;;;;;6167969;23;19997;-76
2022/11/20 13:34:14;;;;;;;;;;;;;;;;;;6168700;23;19995;-76
2022/11/20 13:36:40;;;;;;;;;;;;;;;;;;6167110;23;19952;-77
2022/11/20 13:39:06;;;;;;;;;;;;;;;;;;6168920;23;19994;-76
2022/11/20 13:41:33;;;;;;;;;;;;;;;;;;6142670;23;19915;-77
2022/11/20 13:44:00;;;;;;;;;;;;;;;;;;6142117;23;19920;-76
2022/11/20 13:46:26;;;;;;;;;;;;;;;;;;6166256;23;19966;-76
2022/11/20 13:48:53;;;;;;;;;;;;;;;;;;6168689;23;20243;-76
2022/11/20 13:51:19;;;;;;;;;;;;;;;;;;6165838;23;19920;-76
2022/11/20 13:53:45;;;;;;;;;;;;;;;;;;6165214;23;19975;-78
2022/11/20 13:56:11;;;;;;;;;;;;;;;;;;6167574;23;20040;-78
2022/11/20 13:58:37;;;;;;;;;;;;;;;;;;6142816;23;19920;-78
2022/11/20 14:01:03;;;;;;;;;;;;;;;;;;6142912;23;19920;-78
2022/11/20 14:03:29;;;;;;;;;;;;;;;;;;6166222;23;20287;-78
2022/11/20 14:05:55;;;;;;;;;;;;;;;;;;6139638;23;19939;-78
2022/11/20 14:08:20;;;;;;;;;;;;;;;;;;6143224;23;20324;-78
2022/11/20 14:10:46;;;;;;;;;;;;;;;;;;6165672;23;19951;-77
2022/11/20 14:13:12;;;;;;;;;;;;;;;;;;6140886;23;20358;-78
2022/11/20 14:15:40;;;;;;;;;;;;;;;;;;6164568;23;19939;-78
2022/11/20 14:18:06;;;;;;;;;;;;;;;;;;6166095;23;20352;-78
2022/11/20 14:20:32;;;;;;;;;;;;;;;;;;6168040;23;20402;-78
2022/11/20 14:22:58;;;;;;;;;;;;;;;;;;6165587;23;20251;-78
2022/11/20 14:25:26;;;;;;;;;;;;;;;;;;6163556;23;20247;-82
2022/11/20 14:27:52;;;;;;;;;;;;;;;;;;6166177;23;20273;-78
2022/11/20 14:30:18;;;;;;;;;;;;;;;;;;6165685;23;19916;-79
2022/11/20 14:32:44;;;;;;;;;;;;;;;;;;6167472;23;20448;-79
2022/11/20 14:35:10;;;;;;;;;;;;;;;;;;6166174;23;19920;-78
2022/11/20 14:37:36;;;;;;;;;;;;;;;;;;6138806;23;19916;-76
2022/11/20 14:40:02;;;;;;;;;;;;;;;;;;6165789;23;19969;-75
2022/11/20 14:42:28;;;;;;;;;;;;;;;;;;6166151;23;19923;-77
2022/11/20 14:44:54;;;;;;;;;;;;;;;;;;6167678;23;19923;-76
2022/11/20 14:47:20;;;;;;;;;;;;;;;;;;6165784;23;19982;-75
2022/11/20 14:49:46;;;;;;;;;;;;;;;;;;6169066;23;19920;-76
2022/11/20 14:52:12;;;;;;;;;;;;;;;;;;6166168;23;20420;-76
2022/11/20 14:54:38;;;;;;;;;;;;;;;;;;6167058;23;20174;-76
2022/11/20 14:57:04;;;;;;;;;;;;;;;;;;6164974;23;19920;-76
2022/11/20 14:59:29;;;;;;;;;;;;;;;;;;6168571;23;19970;-76
2022/11/20 15:01:56;;;;;;;;;;;;;;;;;;6140415;23;20395;-76
2022/11/20 15:04:21;;;;;;;;;;;;;;;;;;6141667;23;19920;-76
2022/11/20 15:06:47;;;;;;;;;;;;;;;;;;6168541;23;19920;-76
2022/11/20 15:09:13;;;;;;;;;;;;;;;;;;6142097;23;19916;-77
2022/11/20 15:11:39;;;;;;;;;;;;;;;;;;6142377;23;19947;-76
2022/11/20 15:14:05;;;;;;;;;;;;;;;;;;6140073;23;20278;-79
2022/11/20 15:16:31;;;;;;;;;;;;;;;;;;6139581;23;19916;-76
2022/11/20 15:18:57;;;;;;;;;;;;;;;;;;6142052;23;20335;-75
2022/11/20 15:21:23;;;;;;;;;;;;;;;;;;6140299;23;20351;-74
2022/11/20 15:23:49;;;;;;;;;;;;;;;;;;6166107;23;19916;-76
2022/11/20 15:26:15;;;;;;;;;;;;;;;;;;6140535;23;19927;-76
2022/11/20 15:28:41;;;;;;;;;;;;;;;;;;6139355;23;19916;-76
2022/11/20 15:31:07;;;;;;;;;;;;;;;;;;6167137;23;20047;-75
2022/11/20 15:33:33;;;;;;;;;;;;;;;;;;6142640;23;19931;-75
2022/11/20 15:35:59;;;;;;;;;;;;;;;;;;6141375;23;20233;-76
2022/11/20 15:38:25;;;;;;;;;;;;;;;;;;6141801;23;20310;-76
2022/11/20 15:40:51;;;;;;;;;;;;;;;;;;6140329;23;19916;-76
2022/11/20 15:43:17;;;;;;;;;;;;;;;;;;6142958;23;20956;-76
2022/11/20 15:45:43;;;;;;;;;;;;;;;;;;6167101;23;20075;-76
2022/11/20 15:48:09;;;;;;;;;;;;;;;;;;6142017;23;19916;-76
2022/11/20 15:50:35;;;;;;;;;;;;;;;;;;6165355;23;20006;-76
2022/11/20 15:53:01;;;;;;;;;;;;;;;;;;6117646;23;19986;-76
2022/11/20 15:55:27;;;;;;;;;;;;;;;;;;6142644;23;19916;-77
2022/11/20 15:57:53;;;;;;;;;;;;;;;;;;6141254;23;19916;-76
2022/11/20 16:00:19;;;;;;;;;;;;;;;;;;6140485;23;20669;-76
2022/11/20 16:02:45;;;;;;;;;;;;;;;;;;6141509;23;19923;-76
2022/11/20 16:05:11;;;;;;;;;;;;;;;;;;6142340;23;19916;-75
2022/11/20 16:07:37;;;;;;;;;;;;;;;;;;6166822;23;19975;-76
2022/11/20 16:10:03;;;;;;;;;;;;;;;;;;6142274;23;20356;-75